Time;durP1;ratioP1;P1;durP2;ratioP2;P2;SDS_P1;SDS_P2;PMS_P1;PMS_P2;Temp;Humidity;BMP_temperature;BMP_pressure;BME280_temperature;BME280_humidity;BME280_pressure;Samples;Min_cycle;Max_cycle;Signal;HPM_P1;HPM_P2
2022/07/22 00:01:46;;;;;;;1.02;0.95;;;;;;;;;;5058918;28;20037;-75
2022/07/22 00:04:12;;;;;;;0.30;0.30;;;;;;;;;;5059309;28;20033;-73
2022/07/22 00:06:37;;;;;;;0.30;0.30;;;;;;;;;;5059553;28;20464;-73
2022/07/22 00:09:03;;;;;;;0.50;0.50;;;;;;;;;;5059708;28;20036;-75
2022/07/22 00:11:29;;;;;;;0.20;0.20;;;;;;;;;;5058463;28;20040;-75
2022/07/22 00:13:54;;;;;;;0.30;0.30;;;;;;;;;;5059574;28;20480;-74
2022/07/22 00:16:20;;;;;;;0.30;0.30;;;;;;;;;;5059448;28;20115;-74
2022/07/22 00:18:45;;;;;;;0.30;0.30;;;;;;;;;;5059390;28;20476;-73
2022/07/22 00:21:11;;;;;;;0.40;0.40;;;;;;;;;;5059680;28;20380;-73
2022/07/22 00:23:37;;;;;;;0.30;0.30;;;;;;;;;;5059581;28;20472;-73
2022/07/22 00:26:03;;;;;;;0.35;0.35;;;;;;;;;;5059312;28;20024;-73
2022/07/22 00:28:28;;;;;;;0.50;0.50;;;;;;;;;;5059440;28;20029;-74
2022/07/22 00:30:54;;;;;;;0.20;0.20;;;;;;;;;;5058152;28;20033;-73
2022/07/22 00:33:20;;;;;;;0.63;0.63;;;;;;;;;;5058713;28;20056;-74
2022/07/22 00:35:48;;;;;;;0.30;0.30;;;;;;;;;;5058180;28;20469;-74
2022/07/22 00:38:14;;;;;;;0.20;0.20;;;;;;;;;;5059416;28;20074;-74
2022/07/22 00:40:40;;;;;;;0.60;0.60;;;;;;;;;;5059479;28;20029;-73
2022/07/22 00:43:05;;;;;;;0.28;0.28;;;;;;;;;;5059240;28;20021;-73
2022/07/22 00:45:31;;;;;;;0.30;0.30;;;;;;;;;;5058162;28;20024;-74
2022/07/22 00:47:57;;;;;;;0.30;0.30;;;;;;;;;;5057874;28;20028;-74
2022/07/22 00:50:23;;;;;;;0.30;0.30;;;;;;;;;;5057155;28;20092;-73
2022/07/22 00:52:49;;;;;;;0.25;0.25;;;;;;;;;;5055021;28;20033;-73
2022/07/22 00:55:14;;;;;;;0.30;0.30;;;;;;;;;;5056018;28;20036;-73
2022/07/22 00:57:40;;;;;;;0.52;0.52;;;;;;;;;;5055966;28;20082;-73
2022/07/22 01:00:07;;;;;;;0.30;0.30;;;;;;;;;;5054606;28;20025;-73
2022/07/22 01:02:33;;;;;;;0.30;0.30;;;;;;;;;;5055428;28;20028;-74
2022/07/22 01:04:59;;;;;;;0.30;0.30;;;;;;;;;;5055786;28;20535;-73
2022/07/22 01:07:24;;;;;;;0.20;0.20;;;;;;;;;;5054564;28;20132;-73
2022/07/22 01:09:50;;;;;;;0.22;0.22;;;;;;;;;;5055816;28;20469;-75
2022/07/22 01:12:15;;;;;;;1.98;1.73;;;;;;;;;;5037661;28;20021;-75
2022/07/22 01:14:41;;;;;;;0.30;0.30;;;;;;;;;;5037714;28;20033;-74
2022/07/22 01:17:07;;;;;;;0.45;0.45;;;;;;;;;;5037681;28;20017;-72
2022/07/22 01:19:35;;;;;;;0.25;0.25;;;;;;;;;;5055347;28;20033;-72
2022/07/22 01:22:00;;;;;;;0.77;0.77;;;;;;;;;;5054339;28;20445;-72
2022/07/22 01:24:26;;;;;;;0.38;0.38;;;;;;;;;;5054229;28;20071;-72
2022/07/22 01:26:52;;;;;;;2.80;2.60;;;;;;;;;;5055447;28;20171;-73
2022/07/22 01:29:17;;;;;;;0.30;0.30;;;;;;;;;;5055371;28;20041;-73
2022/07/22 01:31:43;;;;;;;0.30;0.30;;;;;;;;;;5055338;28;20021;-72
2022/07/22 01:34:09;;;;;;;0.40;0.40;;;;;;;;;;5055088;28;20052;-72
2022/07/22 01:36:35;;;;;;;0.30;0.30;;;;;;;;;;5054066;28;20102;-73
2022/07/22 01:39:02;;;;;;;0.30;0.30;;;;;;;;;;5053938;28;20029;-73
2022/07/22 01:41:28;;;;;;;0.30;0.30;;;;;;;;;;5053919;28;20028;-72
2022/07/22 01:43:54;;;;;;;0.30;0.30;;;;;;;;;;5053762;28;20024;-73
2022/07/22 01:46:19;;;;;;;0.28;0.28;;;;;;;;;;5054929;28;20032;-73
2022/07/22 01:48:45;;;;;;;0.20;0.20;;;;;;;;;;5036958;28;20567;-74
2022/07/22 01:51:11;;;;;;;0.40;0.40;;;;;;;;;;5053864;28;20028;-74
2022/07/22 01:53:37;;;;;;;2.28;1.05;;;;;;;;;;5053572;28;20116;-74
2022/07/22 01:56:03;;;;;;;1.73;0.98;;;;;;;;;;5054863;28;20071;-74
2022/07/22 01:58:33;;;;;;;0.30;0.30;;;;;;;;;;5036965;28;20388;-73
2022/07/22 02:00:59;;;;;;;0.20;0.20;;;;;;;;;;5054735;28;20037;-73
2022/07/22 02:03:25;;;;;;;0.20;0.20;;;;;;;;;;5052162;28;20610;-73
2022/07/22 02:05:51;;;;;;;0.43;0.43;;;;;;;;;;5054850;28;20048;-73
2022/07/22 02:08:22;;;;;;;0.20;0.20;;;;;;;;;;5053374;28;20411;-73
2022/07/22 02:11:06;;;;;;;0.30;0.30;;;;;;;;;;5054572;28;20163;-73
2022/07/22 02:13:34;;;;;;;0.30;0.30;;;;;;;;;;5053171;28;20025;-73
2022/07/22 02:15:59;;;;;;;0.25;0.25;;;;;;;;;;5052998;28;20144;-73
2022/07/22 02:18:25;;;;;;;0.30;0.30;;;;;;;;;;5053265;28;20449;-73
2022/07/22 02:20:51;;;;;;;0.20;0.20;;;;;;;;;;5054501;28;20025;-73
2022/07/22 02:23:18;;;;;;;0.30;0.30;;;;;;;;;;5054128;28;20119;-75
2022/07/22 02:25:44;;;;;;;1.95;1.17;;;;;;;;;;5053009;28;20472;-74
2022/07/22 02:28:10;;;;;;;0.20;0.20;;;;;;;;;;5052784;28;20140;-74
2022/07/22 02:30:37;;;;;;;0.40;0.40;;;;;;;;;;5054021;28;20033;-73
2022/07/22 02:33:02;;;;;;;0.30;0.30;;;;;;;;;;5054284;28;20045;-73
2022/07/22 02:35:28;;;;;;;0.20;0.20;;;;;;;;;;5052943;28;20047;-73
2022/07/22 02:37:54;;;;;;;0.20;0.20;;;;;;;;;;5054191;28;20040;-73
2022/07/22 02:40:19;;;;;;;0.32;0.32;;;;;;;;;;5054041;28;20033;-73
2022/07/22 02:42:46;;;;;;;0.65;0.65;;;;;;;;;;5052705;28;20110;-73
2022/07/22 02:45:11;;;;;;;0.20;0.20;;;;;;;;;;5052273;28;20472;-73
2022/07/22 02:47:48;;;;;;;0.60;0.60;;;;;;;;;;5053745;28;20389;-73
2022/07/22 02:50:14;;;;;;;0.40;0.40;;;;;;;;;;5036183;28;20032;-73
2022/07/22 02:52:40;;;;;;;0.40;0.40;;;;;;;;;;5052573;28;20373;-74
2022/07/22 02:55:06;;;;;;;0.20;0.20;;;;;;;;;;5052498;28;20023;-73
2022/07/22 02:57:32;;;;;;;0.28;0.28;;;;;;;;;;5052249;28;20476;-75
2022/07/22 02:59:57;;;;;;;0.85;0.85;;;;;;;;;;5052157;28;20469;-74
2022/07/22 03:02:23;;;;;;;0.43;0.38;;;;;;;;;;5049096;28;20107;-74
2022/07/22 03:04:49;;;;;;;0.30;0.30;;;;;;;;;;5048545;28;20510;-75
2022/07/22 03:07:14;;;;;;;0.40;0.40;;;;;;;;;;5049702;28;20060;-74
2022/07/22 03:09:40;;;;;;;0.40;0.40;;;;;;;;;;5048599;28;20029;-74
2022/07/22 03:12:07;;;;;;;0.30;0.30;;;;;;;;;;5048305;28;20029;-75
2022/07/22 03:14:32;;;;;;;0.30;0.30;;;;;;;;;;5048036;28;20610;-73
2022/07/22 03:16:58;;;;;;;0.20;0.20;;;;;;;;;;5048325;28;20033;-74
2022/07/22 03:19:24;;;;;;;0.32;0.32;;;;;;;;;;5048118;28;20416;-74
2022/07/22 03:21:52;;;;;;;0.30;0.30;;;;;;;;;;5048368;28;20040;-74
2022/07/22 03:24:18;;;;;;;0.50;0.50;;;;;;;;;;5049128;28;20376;-73
2022/07/22 03:26:44;;;;;;;0.20;0.20;;;;;;;;;;5047675;28;20036;-74
2022/07/22 03:29:09;;;;;;;0.60;0.60;;;;;;;;;;5048520;28;20033;-73
2022/07/22 03:31:35;;;;;;;0.30;0.30;;;;;;;;;;5047963;28;20108;-73
2022/07/22 03:34:01;;;;;;;0.30;0.30;;;;;;;;;;5049523;28;20041;-73
2022/07/22 03:36:30;;;;;;;1.23;1.17;;;;;;;;;;5047684;28;20060;-73
2022/07/22 03:38:56;;;;;;;0.30;0.30;;;;;;;;;;5048403;28;20029;-73
2022/07/22 03:41:22;;;;;;;0.20;0.20;;;;;;;;;;5049047;28;20465;-73
2022/07/22 03:43:48;;;;;;;0.20;0.20;;;;;;;;;;5047850;28;20424;-73
2022/07/22 03:46:13;;;;;;;0.22;0.22;;;;;;;;;;5049248;28;20047;-74
2022/07/22 03:48:40;;;;;;;0.60;0.60;;;;;;;;;;5047611;28;20503;-75
2022/07/22 03:51:05;;;;;;;0.20;0.20;;;;;;;;;;5047399;28;20025;-73
2022/07/22 03:53:32;;;;;;;0.20;0.20;;;;;;;;;;5047954;28;20036;-74
2022/07/22 03:55:58;;;;;;;0.20;0.20;;;;;;;;;;5048833;28;20040;-74
2022/07/22 03:58:26;;;;;;;0.30;0.30;;;;;;;;;;5047778;28;20041;-74
2022/07/22 04:00:53;;;;;;;0.20;0.20;;;;;;;;;;5051219;28;20029;-74
2022/07/22 04:03:18;;;;;;;0.20;0.20;;;;;;;;;;5058355;28;20052;-76
2022/07/22 04:05:50;;;;;;;0.30;0.30;;;;;;;;;;5059020;28;20045;-77
2022/07/22 04:08:24;;;;;;;0.30;0.30;;;;;;;;;;5047553;28;20033;-78
2022/07/22 04:10:51;;;;;;;0.30;0.30;;;;;;;;;;5048834;28;20033;-75
2022/07/22 04:13:17;;;;;;;0.20;0.20;;;;;;;;;;5031031;28;20443;-75
2022/07/22 04:15:53;;;;;;;0.20;0.20;;;;;;;;;;5047542;28;20025;-74
2022/07/22 04:18:19;;;;;;;0.20;0.20;;;;;;;;;;5047468;28;20025;-74
2022/07/22 04:20:46;;;;;;;0.30;0.30;;;;;;;;;;5047467;28;20021;-74
2022/07/22 04:23:32;;;;;;;0.30;0.30;;;;;;;;;;5048341;28;20625;-73
2022/07/22 04:26:09;;;;;;;0.30;0.30;;;;;;;;;;5049277;28;20157;-74
2022/07/22 04:28:36;;;;;;;0.30;0.30;;;;;;;;;;5051471;28;20040;-74
2022/07/22 04:31:02;;;;;;;0.20;0.20;;;;;;;;;;5052110;28;20484;-75
2022/07/22 04:33:28;;;;;;;0.20;0.20;;;;;;;;;;5050896;28;20051;-75
2022/07/22 04:35:54;;;;;;;0.25;0.25;;;;;;;;;;5052382;28;20029;-74
2022/07/22 04:38:20;;;;;;;0.30;0.30;;;;;;;;;;5050974;28;20037;-74
2022/07/22 04:40:55;;;;;;;0.20;0.20;;;;;;;;;;5052394;28;20032;-73
2022/07/22 04:43:23;;;;;;;0.30;0.30;;;;;;;;;;5051058;28;20036;-74
2022/07/22 04:45:49;;;;;;;0.20;0.20;;;;;;;;;;5052266;28;20082;-73
2022/07/22 04:48:15;;;;;;;2.63;2.53;;;;;;;;;;5052244;28;20036;-74
2022/07/22 04:50:41;;;;;;;0.20;0.20;;;;;;;;;;5034456;28;20029;-72
2022/07/22 04:53:07;;;;;;;0.30;0.30;;;;;;;;;;5052192;28;20079;-74
2022/07/22 04:55:33;;;;;;;0.20;0.20;;;;;;;;;;5050866;28;20468;-74
2022/07/22 04:57:59;;;;;;;0.20;0.20;;;;;;;;;;5052203;28;20117;-74
2022/07/22 05:00:25;;;;;;;0.20;0.20;;;;;;;;;;5050744;28;20057;-74
2022/07/22 05:02:53;;;;;;;0.20;0.20;;;;;;;;;;5038910;28;20022;-72
2022/07/22 05:05:20;;;;;;;0.15;0.15;;;;;;;;;;5050414;28;20032;-73
2022/07/22 05:07:45;;;;;;;0.20;0.20;;;;;;;;;;5049295;28;20045;-73
2022/07/22 05:10:11;;;;;;;0.20;0.20;;;;;;;;;;5050401;28;20098;-73
2022/07/22 05:12:37;;;;;;;0.25;0.25;;;;;;;;;;5048828;28;20025;-75
2022/07/22 05:15:03;;;;;;;0.28;0.28;;;;;;;;;;5049339;28;20490;-74
2022/07/22 05:17:29;;;;;;;0.20;0.20;;;;;;;;;;5049946;28;20040;-74
2022/07/22 05:20:05;;;;;;;0.20;0.20;;;;;;;;;;5051487;28;20661;-73
2022/07/22 05:22:32;;;;;;;0.20;0.20;;;;;;;;;;5051232;28;20709;-74
2022/07/22 05:24:59;;;;;;;0.30;0.30;;;;;;;;;;5049753;28;20029;-74
2022/07/22 05:27:25;;;;;;;0.20;0.20;;;;;;;;;;5050854;28;20055;-73
2022/07/22 05:29:50;;;;;;;0.30;0.30;;;;;;;;;;5051361;28;20041;-74
2022/07/22 05:32:16;;;;;;;0.28;0.28;;;;;;;;;;5048634;28;20049;-74
2022/07/22 05:34:42;;;;;;;0.20;0.20;;;;;;;;;;5050069;28;20032;-74
2022/07/22 05:37:08;;;;;;;1.20;1.20;;;;;;;;;;5049244;28;20032;-74
2022/07/22 05:39:33;;;;;;;1.23;1.13;;;;;;;;;;5048904;28;20028;-73
2022/07/22 05:41:59;;;;;;;0.30;0.30;;;;;;;;;;5049706;28;20056;-74
2022/07/22 05:44:25;;;;;;;0.30;0.30;;;;;;;;;;5050577;28;20044;-74
2022/07/22 05:46:51;;;;;;;0.25;0.25;;;;;;;;;;5049575;28;20067;-74
2022/07/22 05:49:17;;;;;;;0.20;0.20;;;;;;;;;;5048864;28;20484;-74
2022/07/22 05:51:53;;;;;;;7.50;2.28;;;;;;;;;;5050879;28;20072;-74
2022/07/22 05:54:19;;;;;;;0.28;0.28;;;;;;;;;;5051025;28;20822;-74
2022/07/22 05:56:44;;;;;;;0.60;0.60;;;;;;;;;;5050866;28;20029;-73
2022/07/22 05:59:10;;;;;;;2.60;2.50;;;;;;;;;;5050384;28;20031;-73
2022/07/22 06:01:36;;;;;;;0.30;0.30;;;;;;;;;;5050398;28;20048;-72
2022/07/22 06:04:11;;;;;;;0.30;0.30;;;;;;;;;;5049346;28;20032;-73
2022/07/22 06:06:37;;;;;;;0.30;0.30;;;;;;;;;;5050194;28;20033;-74
2022/07/22 06:09:04;;;;;;;0.30;0.30;;;;;;;;;;5048709;28;20032;-74
2022/07/22 06:11:29;;;;;;;0.30;0.30;;;;;;;;;;5050362;28;20071;-74
2022/07/22 06:13:56;;;;;;;0.30;0.30;;;;;;;;;;5049036;28;20036;-74
2022/07/22 06:16:21;;;;;;;0.50;0.50;;;;;;;;;;5048739;28;20033;-75
2022/07/22 06:18:52;;;;;;;0.30;0.30;;;;;;;;;;5049218;28;20071;-73
2022/07/22 06:21:17;;;;;;;0.30;0.30;;;;;;;;;;5049897;28;20021;-74
2022/07/22 06:23:43;;;;;;;0.40;0.40;;;;;;;;;;5048810;28;20079;-74
2022/07/22 06:26:08;;;;;;;0.40;0.40;;;;;;;;;;5048709;28;20017;-74
2022/07/22 06:28:34;;;;;;;0.52;0.52;;;;;;;;;;5048900;28;20036;-74
2022/07/22 06:31:01;;;;;;;0.40;0.40;;;;;;;;;;5048432;28;20856;-74
2022/07/22 06:33:27;;;;;;;0.30;0.30;;;;;;;;;;5049746;28;20053;-73
2022/07/22 06:35:53;;;;;;;0.30;0.30;;;;;;;;;;5049843;28;20443;-74
2022/07/22 06:38:18;;;;;;;0.30;0.30;;;;;;;;;;5049000;28;20033;-74
2022/07/22 06:41:10;;;;;;;0.40;0.40;;;;;;;;;;5033402;28;20113;-73
2022/07/22 06:44:05;;;;;;;0.45;0.45;;;;;;;;;;5040728;28;20041;-74
2022/07/22 06:46:44;;;;;;;;;;;;;;;;;;5048899;28;20033;-73
2022/07/22 06:49:10;;;;;;;0.40;0.40;;;;;;;;;;5047558;28;19979;-71
2022/07/22 06:51:35;;;;;;;0.40;0.40;;;;;;;;;;5048306;28;20036;-74
2022/07/22 06:54:01;;;;;;;0.30;0.30;;;;;;;;;;5047946;28;20045;-73
2022/07/22 06:56:26;;;;;;;0.80;0.80;;;;;;;;;;5048512;28;20048;-73
2022/07/22 06:58:52;;;;;;;0.30;0.30;;;;;;;;;;5048067;28;20079;-73
2022/07/22 07:01:19;;;;;;;0.35;0.35;;;;;;;;;;5047899;28;20025;-73
2022/07/22 07:03:57;;;;;;;0.43;0.43;;;;;;;;;;5046956;28;20029;-73
2022/07/22 07:06:22;;;;;;;0.40;0.40;;;;;;;;;;5045663;28;20350;-73
2022/07/22 07:09:11;;;;;;;0.30;0.30;;;;;;;;;;5035170;28;20067;-72
2022/07/22 07:11:37;;;;;;;0.30;0.30;;;;;;;;;;5048697;28;20037;-72
2022/07/22 07:14:11;;;;;;;0.30;0.30;;;;;;;;;;5027223;28;20030;-71
2022/07/22 07:16:37;;;;;;;0.40;0.40;;;;;;;;;;5027125;28;20037;-72
2022/07/22 07:19:03;;;;;;;0.38;0.38;;;;;;;;;;5027457;28;20483;-71
2022/07/22 07:21:30;;;;;;;0.30;0.30;;;;;;;;;;5027314;28;20025;-73
2022/07/22 07:23:56;;;;;;;1.10;1.10;;;;;;;;;;5029238;28;20500;-72
2022/07/22 07:26:24;;;;;;;0.30;0.30;;;;;;;;;;5029040;28;20469;-73
2022/07/22 07:28:49;;;;;;;0.50;0.50;;;;;;;;;;5028141;28;20053;-73
2022/07/22 07:31:25;;;;;;;0.40;0.40;;;;;;;;;;5027628;28;20148;-72
2022/07/22 07:33:53;;;;;;;0.30;0.30;;;;;;;;;;5027729;28;20132;-74
2022/07/22 07:36:19;;;;;;;0.40;0.40;;;;;;;;;;5027872;28;20515;-74
2022/07/22 07:38:48;;;;;;;0.38;0.38;;;;;;;;;;5026143;28;20035;-73
2022/07/22 07:41:16;;;;;;;0.40;0.40;;;;;;;;;;5048807;28;20111;-73
2022/07/22 07:43:42;;;;;;;0.30;0.30;;;;;;;;;;5047447;28;20115;-73
2022/07/22 07:46:09;;;;;;;0.60;0.60;;;;;;;;;;5030520;28;20163;-74
2022/07/22 07:48:34;;;;;;;0.40;0.40;;;;;;;;;;5046405;28;20119;-73
2022/07/22 07:51:00;;;;;;;0.40;0.40;;;;;;;;;;5045942;28;20603;-73
2022/07/22 07:53:26;;;;;;;0.30;0.30;;;;;;;;;;5047979;28;20139;-72
2022/07/22 07:55:52;;;;;;;0.40;0.40;;;;;;;;;;5046394;28;20025;-74
2022/07/22 07:58:19;;;;;;;0.47;0.47;;;;;;;;;;5047307;28;20025;-73
2022/07/22 08:00:45;;;;;;;0.70;0.70;;;;;;;;;;5051483;28;20195;-73
2022/07/22 08:03:11;;;;;;;0.40;0.40;;;;;;;;;;5050954;28;20032;-73
2022/07/22 08:05:38;;;;;;;0.52;0.52;;;;;;;;;;5051276;28;20037;-74
2022/07/22 08:08:09;;;;;;;0.40;0.40;;;;;;;;;;5051365;28;20043;-73
2022/07/22 08:10:34;;;;;;;0.50;0.50;;;;;;;;;;5051295;28;20032;-72
2022/07/22 08:13:00;;;;;;;0.40;0.40;;;;;;;;;;5052751;28;20040;-73
2022/07/22 08:15:46;;;;;;;0.52;0.52;;;;;;;;;;5048211;28;20095;-72
2022/07/22 08:18:17;;;;;;;0.40;0.40;;;;;;;;;;5052252;28;20021;-73
2022/07/22 08:20:42;;;;;;;0.50;0.50;;;;;;;;;;5053698;28;20051;-72
2022/07/22 08:23:12;;;;;;;0.50;0.50;;;;;;;;;;5054210;28;20036;-73
2022/07/22 08:25:40;;;;;;;0.50;0.50;;;;;;;;;;5034969;28;20369;-74
2022/07/22 08:28:06;;;;;;;0.40;0.40;;;;;;;;;;5051104;28;20056;-74
2022/07/22 08:30:32;;;;;;;0.60;0.60;;;;;;;;;;5051398;28;20025;-73
2022/07/22 08:32:58;;;;;;;0.60;0.60;;;;;;;;;;5050784;28;20106;-76
2022/07/22 08:35:23;;;;;;;0.70;0.70;;;;;;;;;;5051805;28;20112;-74
2022/07/22 08:37:49;;;;;;;0.50;0.50;;;;;;;;;;5051056;28;20123;-74
2022/07/22 08:40:16;;;;;;;0.50;0.50;;;;;;;;;;5051859;28;20053;-74
2022/07/22 08:42:43;;;;;;;0.75;0.75;;;;;;;;;;5049218;28;20468;-75
2022/07/22 08:45:09;;;;;;;0.55;0.55;;;;;;;;;;5052076;28;20025;-73
2022/07/22 08:47:35;;;;;;;0.50;0.50;;;;;;;;;;5049602;28;20512;-72
2022/07/22 08:50:12;;;;;;;0.50;0.50;;;;;;;;;;5050884;28;20111;-73
2022/07/22 08:52:51;;;;;;;0.60;0.60;;;;;;;;;;5030730;28;20034;-73
2022/07/22 08:55:17;;;;;;;0.50;0.50;;;;;;;;;;5030275;28;20056;-74
2022/07/22 08:57:44;;;;;;;0.90;0.90;;;;;;;;;;5024178;28;20060;-74
2022/07/22 09:00:11;;;;;;;0.50;0.50;;;;;;;;;;5033025;28;20775;-73
2022/07/22 09:02:38;;;;;;;0.57;0.57;;;;;;;;;;5027873;28;20055;-73
2022/07/22 09:05:05;;;;;;;0.98;0.98;;;;;;;;;;5028040;28;20033;-73
2022/07/22 09:07:32;;;;;;;0.50;0.50;;;;;;;;;;5029308;28;20144;-74
2022/07/22 09:10:04;;;;;;;0.50;0.50;;;;;;;;;;5028191;28;20033;-75
2022/07/22 09:12:52;;;;;;;0.60;0.60;;;;;;;;;;5028922;28;20072;-73
2022/07/22 09:15:39;;;;;;;0.90;0.90;;;;;;;;;;5029658;28;20117;-74
2022/07/22 09:18:23;;;;;;;1.60;1.38;;;;;;;;;;5029388;28;20049;-73
2022/07/22 09:21:20;;;;;;;0.50;0.50;;;;;;;;;;5029016;28;20021;-73
2022/07/22 09:23:58;;;;;;;0.57;0.57;;;;;;;;;;5029064;28;20021;-74
2022/07/22 09:26:31;;;;;;;0.57;0.57;;;;;;;;;;5029399;28;20033;-74
2022/07/22 09:29:18;;;;;;;1.38;1.00;;;;;;;;;;5029853;28;20037;-74
2022/07/22 09:32:06;;;;;;;3.72;2.53;;;;;;;;;;5028934;28;20041;-73
2022/07/22 09:34:50;;;;;;;1.38;1.27;;;;;;;;;;5029051;28;20072;-73
2022/07/22 09:37:24;;;;;;;2.10;1.52;;;;;;;;;;5028574;28;20060;-73
2022/07/22 09:39:49;;;;;;;1.85;1.70;;;;;;;;;;5043764;28;20037;-72
2022/07/22 09:42:18;;;;;;;1.17;0.95;;;;;;;;;;5027671;28;20095;-74
2022/07/22 09:44:46;;;;;;;0.40;0.40;;;;;;;;;;5029051;28;20037;-73
2022/07/22 09:47:29;;;;;;;1.25;1.10;;;;;;;;;;5043554;28;20124;-73
2022/07/22 09:50:14;;;;;;;0.50;0.50;;;;;;;;;;5028966;28;20045;-75
2022/07/22 09:52:59;;;;;;;5.32;2.10;;;;;;;;;;5029057;28;20033;-73
2022/07/22 09:55:28;;;;;;;4.40;1.67;;;;;;;;;;5027348;28;20133;-72
2022/07/22 09:57:55;;;;;;;0.60;0.60;;;;;;;;;;5027148;28;20041;-74
2022/07/22 10:00:22;;;;;;;1.17;0.82;;;;;;;;;;5028345;28;20080;-74
2022/07/22 10:03:01;;;;;;;1.05;0.98;;;;;;;;;;5043614;28;20091;-73
2022/07/22 10:05:31;;;;;;;0.60;0.60;;;;;;;;;;5026924;28;20030;-75
2022/07/22 10:07:57;;;;;;;0.70;0.70;;;;;;;;;;5027460;28;20091;-71
2022/07/22 10:10:27;;;;;;;1.92;1.67;;;;;;;;;;5026902;28;20087;-74
2022/07/22 10:12:54;;;;;;;1.45;1.35;;;;;;;;;;5026828;28;20437;-73
2022/07/22 10:15:21;;;;;;;2.45;1.88;;;;;;;;;;5026972;28;20087;-73
2022/07/22 10:17:50;;;;;;;1.65;1.55;;;;;;;;;;5026616;28;20095;-74
2022/07/22 10:20:18;;;;;;;1.77;1.63;;;;;;;;;;5027193;28;20041;-73
2022/07/22 10:22:44;;;;;;;1.85;1.58;;;;;;;;;;5027596;28;20543;-73
2022/07/22 10:25:12;;;;;;;0.90;0.85;;;;;;;;;;5042239;28;20041;-72
2022/07/22 10:27:53;;;;;;;0.80;0.80;;;;;;;;;;5027975;28;20041;-73
2022/07/22 10:30:20;;;;;;;2.05;1.77;;;;;;;;;;5028350;28;20034;-74
2022/07/22 10:33:01;;;;;;;0.40;0.40;;;;;;;;;;5027855;28;20048;-78
2022/07/22 10:35:26;;;;;;;0.60;0.60;;;;;;;;;;5027041;28;20101;-78
2022/07/22 10:37:58;;;;;;;0.60;0.60;;;;;;;;;;5026965;28;20416;-78
2022/07/22 10:40:25;;;;;;;0.75;0.75;;;;;;;;;;5027931;28;20488;-79
2022/07/22 10:43:00;;;;;;;1.13;1.02;;;;;;;;;;5028257;28;20108;-77
2022/07/22 10:45:33;;;;;;;0.60;0.60;;;;;;;;;;5027761;28;20029;-77
2022/07/22 10:48:09;;;;;;;0.90;0.70;;;;;;;;;;5027523;28;20045;-78
2022/07/22 10:50:38;;;;;;;2.78;1.90;;;;;;;;;;5028306;28;20119;-77
2022/07/22 10:53:04;;;;;;;1.35;1.23;;;;;;;;;;5027900;28;20040;-78
2022/07/22 10:55:30;;;;;;;2.40;1.88;;;;;;;;;;5026815;28;20104;-78
2022/07/22 10:57:56;;;;;;;0.90;0.85;;;;;;;;;;5027827;28;20124;-76
2022/07/22 11:00:21;;;;;;;0.40;0.40;;;;;;;;;;5027136;28;20025;-77
2022/07/22 11:02:47;;;;;;;0.75;0.75;;;;;;;;;;5027235;28;20033;-76
2022/07/22 11:05:13;;;;;;;10.35;1.77;;;;;;;;;;5027979;28;20112;-77
2022/07/22 11:07:42;;;;;;;1.02;0.93;;;;;;;;;;5027503;28;20049;-78
2022/07/22 11:10:12;;;;;;;1.95;1.45;;;;;;;;;;5027509;28;20035;-78
2022/07/22 11:12:38;;;;;;;0.95;0.95;;;;;;;;;;5027302;28;20067;-79
2022/07/22 11:15:06;;;;;;;0.63;0.63;;;;;;;;;;5026150;28;20492;-79
2022/07/22 11:17:34;;;;;;;1.05;0.95;;;;;;;;;;5042292;28;20025;-78
2022/07/22 11:20:00;;;;;;;2.78;1.60;;;;;;;;;;5028892;28;20025;-77
2022/07/22 11:22:27;;;;;;;1.70;1.55;;;;;;;;;;5025793;28;20025;-77
2022/07/22 11:24:52;;;;;;;1.73;1.50;;;;;;;;;;5030814;28;20047;-79
2022/07/22 11:27:19;;;;;;;1.88;1.40;;;;;;;;;;5030776;28;20029;-79
2022/07/22 11:29:48;;;;;;;0.40;0.40;;;;;;;;;;5047025;28;20029;-79
2022/07/22 11:32:14;;;;;;;3.78;2.33;;;;;;;;;;5045153;28;20084;-80
2022/07/22 11:34:47;;;;;;;7.47;1.55;;;;;;;;;;5046931;28;20082;-78
2022/07/22 11:37:13;;;;;;;0.45;0.45;;;;;;;;;;5045034;28;20039;-79
2022/07/22 11:39:39;;;;;;;0.50;0.50;;;;;;;;;;5046983;28;20440;-78
2022/07/22 11:42:05;;;;;;;5.07;1.30;;;;;;;;;;5045724;28;20143;-80
2022/07/22 11:44:32;;;;;;;1.95;1.40;;;;;;;;;;5044266;28;20021;-78
2022/07/22 11:47:00;;;;;;;0.73;0.70;;;;;;;;;;5045601;28;20699;-79
2022/07/22 11:49:27;;;;;;;1.50;1.40;;;;;;;;;;5046018;28;20379;-78
2022/07/22 11:51:53;;;;;;;0.68;0.68;;;;;;;;;;5046804;28;20111;-79
2022/07/22 11:54:18;;;;;;;2.78;2.03;;;;;;;;;;5045456;28;20485;-79
2022/07/22 11:56:44;;;;;;;6.07;2.15;;;;;;;;;;5047458;28;20068;-79
2022/07/22 11:59:14;;;;;;;3.10;1.45;;;;;;;;;;5046377;28;20036;-77
2022/07/22 12:01:43;;;;;;;1.08;1.00;;;;;;;;;;5045427;28;20064;-78
2022/07/22 12:04:08;;;;;;;;;;;;;;;;;;5047237;28;20021;-78
2022/07/22 12:06:38;;;;;;;0.60;0.60;;;;;;;;;;5046449;28;19915;-77
2022/07/22 12:09:15;;;;;;;3.00;2.10;;;;;;;;;;5046081;28;20159;-80
2022/07/22 12:11:42;;;;;;;0.60;0.60;;;;;;;;;;5046193;28;20033;-79
2022/07/22 12:14:08;;;;;;;0.60;0.60;;;;;;;;;;5046729;28;20036;-79
2022/07/22 12:16:34;;;;;;;0.70;0.70;;;;;;;;;;5046754;28;20803;-78
2022/07/22 12:19:02;;;;;;;1.10;1.00;;;;;;;;;;5046045;28;20044;-80
2022/07/22 12:21:32;;;;;;;2.67;2.10;;;;;;;;;;5046514;28;20036;-80
2022/07/22 12:24:05;;;;;;;1.23;1.08;;;;;;;;;;5045541;28;20021;-77
2022/07/22 12:26:47;;;;;;;1.65;1.52;;;;;;;;;;5046573;28;20033;-78
2022/07/22 12:29:17;;;;;;;0.80;0.80;;;;;;;;;;5045564;28;20408;-77
2022/07/22 12:31:44;;;;;;;2.88;1.48;;;;;;;;;;5049587;28;20025;-78
2022/07/22 12:34:10;;;;;;;1.30;1.20;;;;;;;;;;5047858;28;20079;-77
2022/07/22 12:36:36;;;;;;;1.25;1.10;;;;;;;;;;5046037;28;20397;-78
2022/07/22 12:39:12;;;;;;;1.42;1.33;;;;;;;;;;5045979;28;20029;-80
2022/07/22 12:41:44;;;;;;;2.17;1.77;;;;;;;;;;5046441;28;20625;-75
2022/07/22 12:44:21;;;;;;;2.92;2.63;;;;;;;;;;5045319;28;20108;-77
2022/07/22 12:46:56;;;;;;;0.85;0.82;;;;;;;;;;5048240;28;20114;-78
2022/07/22 12:49:23;;;;;;;3.33;1.02;;;;;;;;;;5050000;28;20041;-78
2022/07/22 12:52:07;;;;;;;2.80;1.40;;;;;;;;;;5050446;28;20574;-77
2022/07/22 12:54:33;;;;;;;2.20;1.33;;;;;;;;;;5050537;28;20033;-76
2022/07/22 12:56:59;;;;;;;0.60;0.60;;;;;;;;;;5049880;28;20104;-77
2022/07/22 12:59:24;;;;;;;0.88;0.65;;;;;;;;;;5049080;28;20524;-79
2022/07/22 13:01:50;;;;;;;1.00;0.98;;;;;;;;;;5049580;28;20376;-79
2022/07/22 13:04:16;;;;;;;1.88;1.58;;;;;;;;;;5049341;28;20132;-80
2022/07/22 13:06:41;;;;;;;3.60;2.25;;;;;;;;;;5049966;28;20029;-74
2022/07/22 13:09:07;;;;;;;3.60;1.73;;;;;;;;;;5049854;28;20480;-78
2022/07/22 13:11:32;;;;;;;0.52;0.52;;;;;;;;;;5049180;28;20033;-80
2022/07/22 13:13:58;;;;;;;2.83;2.30;;;;;;;;;;5048775;28;20037;-79
2022/07/22 13:16:24;;;;;;;2.53;1.45;;;;;;;;;;5049348;28;20384;-78
2022/07/22 13:18:50;;;;;;;0.70;0.70;;;;;;;;;;5049664;28;20047;-79
2022/07/22 13:21:16;;;;;;;1.80;1.65;;;;;;;;;;5048166;28;20558;-76
2022/07/22 13:23:41;;;;;;;5.60;1.98;;;;;;;;;;5049243;28;20033;-79
2022/07/22 13:26:07;;;;;;;2.35;1.55;;;;;;;;;;5050095;28;20484;-77
2022/07/22 13:28:32;;;;;;;1.75;1.60;;;;;;;;;;5049490;28;20045;-78
2022/07/22 13:30:58;;;;;;;0.82;0.80;;;;;;;;;;5048679;28;20150;-78
2022/07/22 13:33:23;;;;;;;0.80;0.80;;;;;;;;;;5048323;28;20053;-79
2022/07/22 13:35:49;;;;;;;0.50;0.50;;;;;;;;;;5047807;28;20036;-79
2022/07/22 13:38:16;;;;;;;2.28;1.83;;;;;;;;;;5048715;28;20033;-79
2022/07/22 13:40:51;;;;;;;2.22;1.52;;;;;;;;;;5047718;28;20118;-79
2022/07/22 13:43:20;;;;;;;4.03;1.35;;;;;;;;;;5049079;28;20071;-78
2022/07/22 13:45:45;;;;;;;0.80;0.80;;;;;;;;;;5048880;28;20033;-78
2022/07/22 13:48:11;;;;;;;1.05;0.93;;;;;;;;;;5048393;28;20047;-77
2022/07/22 13:50:36;;;;;;;2.30;1.30;;;;;;;;;;5046922;28;20021;-79
2022/07/22 13:53:02;;;;;;;1.75;1.55;;;;;;;;;;5046073;28;20017;-78
2022/07/22 13:55:27;;;;;;;1.02;0.95;;;;;;;;;;5048847;28;20033;-79
2022/07/22 13:57:53;;;;;;;0.90;0.85;;;;;;;;;;5046557;28;20064;-79
2022/07/22 14:00:18;;;;;;;2.35;2.08;;;;;;;;;;5046393;28;20025;-78
2022/07/22 14:02:44;;;;;;;0.55;0.55;;;;;;;;;;5045380;28;20033;-79
2022/07/22 14:05:10;;;;;;;0.90;0.88;;;;;;;;;;5046459;28;20032;-77
2022/07/22 14:07:36;;;;;;;1.63;1.17;;;;;;;;;;5046133;28;20041;-79
2022/07/22 14:10:01;;;;;;;10.52;1.00;;;;;;;;;;5047007;28;20029;-79
2022/07/22 14:12:27;;;;;;;2.20;1.55;;;;;;;;;;5046433;28;20029;-77
2022/07/22 14:14:52;;;;;;;1.10;1.05;;;;;;;;;;5030729;28;20102;-79
2022/07/22 14:17:18;;;;;;;3.72;1.90;;;;;;;;;;5048089;28;20028;-78
2022/07/22 14:19:43;;;;;;;0.60;0.60;;;;;;;;;;5048033;28;20088;-79
2022/07/22 14:22:10;;;;;;;0.80;0.80;;;;;;;;;;5048216;28;20037;-77
2022/07/22 14:24:36;;;;;;;0.45;0.45;;;;;;;;;;5047383;28;20047;-79
2022/07/22 14:27:01;;;;;;;12.80;1.90;;;;;;;;;;5047847;28;20088;-79
2022/07/22 14:29:27;;;;;;;2.75;2.08;;;;;;;;;;5046940;28;20033;-79
2022/07/22 14:31:52;;;;;;;1.15;0.95;;;;;;;;;;5047602;28;20029;-79
2022/07/22 14:34:18;;;;;;;1.98;1.70;;;;;;;;;;5048171;28;20033;-79
2022/07/22 14:36:43;;;;;;;1.17;1.08;;;;;;;;;;5047844;28;20029;-78
2022/07/22 14:39:09;;;;;;;0.88;0.88;;;;;;;;;;5047471;28;20021;-78
2022/07/22 14:41:34;;;;;;;2.38;1.63;;;;;;;;;;5048594;28;20029;-78
2022/07/22 14:44:00;;;;;;;0.47;0.47;;;;;;;;;;5046639;28;20087;-78
2022/07/22 14:46:25;;;;;;;1.25;1.15;;;;;;;;;;5047569;28;20484;-79
2022/07/22 14:48:53;;;;;;;1.63;1.27;;;;;;;;;;5048004;28;20033;-77